Terrace, Terrace Northwest Regional Airport (CYXT)

NameTerrace Northwest Regional Airport
CityTerrace
CountryCanada
ICAOCYXT
IATAYXT
Altitude217 m
CoordinatesGoogle Map
Live Air TrafficLiveATC.net
METARCYXT 131100Z 20010KT 4SM -RA BR FEW005 SCT010 BKN021 OVC061 02/01 A2942 RMK SF2SC1SC2SC3 SLP972
2018-12-13 11:00:00 Wind: South (200°) 5.14 m/s - Visibility: 6437.36 m - Weather: Light Rain / Mist - Temperature: 2 °C - Dew point: 1 °C - Humidity: 93.2% - Pressure: 996.28 hPa
Statistics

The table below shows the detailed information of all flights to/from Terrace, Terrace Northwest Regional Airport (CYXT).